Terminal Aerodrome Forecast
Issued by NWS Raleigh/Durham, NC

Home | Current Version | Previous Version | Text Only | Print | Product List | Glossary On
Versions: 1 2 3 4 5 6 7 8 9 10 11 12 13 14 15 16 17 18 19 20 21 22 23 24
000
FTUS42 KRAH 300654 AAA
TAFRDU
TAF AMD
KRDU 300654Z 3007/0106 20007KT P6SM BKN012
     FM301000 20004KT P6SM OVC008
     FM301600 21009KT P6SM BKN015
     FM301700 21009KT P6SM SCT020=

USA.gov is the U.S. government's official web portal to all federal, state and local government web resources and services.